createdAt,value
2017-07-02T00:00:00.270Z,121.40
2017-07-02T00:00:04.585Z,135.40
2017-07-02T00:00:08.978Z,124.83
2017-07-02T00:00:13.247Z,108.25
2017-07-02T00:00:17.507Z,97.35
2017-07-02T00:00:21.754Z,90.10
2017-07-02T00:00:26.013Z,84.20
2017-07-02T00:00:30.282Z,78.45
2017-07-02T00:00:34.535Z,73.45
2017-07-02T00:00:38.786Z,69.43
2017-07-02T00:00:43.055Z,65.90
2017-07-02T00:00:47.310Z,63.95
2017-07-02T00:00:51.563Z,61.65
2017-07-02T00:00:55.823Z,57.30
2017-07-02T00:01:00.091Z,47.85
2017-07-02T00:01:04.482Z,42.75
2017-07-02T00:01:08.747Z,39.77
2017-07-02T00:01:13.079Z,37.80
2017-07-02T00:01:17.335Z,37.50
2017-07-02T00:01:21.609Z,36.45
2017-07-02T00:01:26.643Z,35.10
2017-07-02T00:01:31.679Z,34.10
2017-07-02T00:01:35.958Z,34.30
2017-07-02T00:01:40.227Z,34.75
2017-07-02T00:01:44.487Z,34.20
2017-07-02T00:01:48.931Z,35.10
2017-07-02T00:01:53.227Z,34.65
2017-07-02T00:01:57.649Z,35.50
2017-07-02T00:02:01.903Z,35.35
2017-07-02T00:02:06.155Z,35.90
2017-07-02T00:02:11.174Z,35.80
2017-07-02T00:02:15.492Z,35.67
2017-07-02T00:02:19.971Z,34.50
2017-07-02T00:02:24.227Z,34.50
2017-07-02T00:02:28.491Z,34.73
2017-07-02T00:02:32.748Z,34.85
2017-07-02T00:02:37.031Z,33.20
2017-07-02T00:02:41.291Z,33.30
2017-07-02T00:02:46.314Z,32.80
2017-07-02T00:02:51.343Z,33.13
2017-07-02T00:02:55.599Z,33.13
2017-07-02T00:03:00.001Z,34.50
2017-07-02T00:03:04.416Z,35.23
2017-07-02T00:03:08.670Z,35.60
2017-07-02T00:03:12.920Z,36.45
2017-07-02T00:03:17.182Z,38.50
2017-07-02T00:03:21.507Z,40.25
2017-07-02T00:03:26.026Z,40.30
2017-07-02T00:03:30.382Z,40.37
2017-07-02T00:03:34.643Z,40.75
2017-07-02T00:03:38.898Z,41.20
2017-07-02T00:03:43.155Z,41.60
2017-07-02T00:03:47.412Z,40.85
2017-07-02T00:03:51.672Z,40.40
2017-07-02T00:03:56.365Z,40.45
2017-07-02T00:04:00.619Z,38.50
2017-07-02T00:04:04.888Z,38.45
2017-07-02T00:04:09.180Z,38.53
2017-07-02T00:04:14.196Z,36.35
2017-07-02T00:04:18.454Z,35.67
2017-07-02T00:04:22.703Z,36.35
2017-07-02T00:04:26.970Z,35.93
2017-07-02T00:04:32.047Z,36.10
2017-07-02T00:04:36.296Z,37.53
2017-07-02T00:04:41.317Z,37.65
2017-07-02T00:04:46.334Z,38.63
2017-07-02T00:04:51.360Z,40.03
2017-07-02T00:04:55.607Z,41.10
2017-07-02T00:04:59.874Z,42.07
2017-07-02T00:05:04.139Z,42.30
2017-07-02T00:05:08.375Z,41.65
2017-07-02T00:05:12.623Z,42.25
2017-07-02T00:05:16.893Z,42.80
2017-07-02T00:05:21.146Z,42.25
2017-07-02T00:05:25.433Z,43.85
2017-07-02T00:05:29.679Z,46.70
2017-07-02T00:05:33.933Z,45.80
2017-07-02T00:05:38.207Z,45.80
2017-07-02T00:05:42.527Z,45.00
2017-07-02T00:05:46.823Z,44.50
2017-07-02T00:05:51.067Z,44.60
2017-07-02T00:05:55.435Z,45.90
2017-07-02T00:05:59.824Z,45.10
2017-07-02T00:06:04.094Z,44.25
2017-07-02T00:06:08.346Z,43.85
2017-07-02T00:06:13.371Z,43.80
2017-07-02T00:06:17.752Z,44.30
2017-07-02T00:06:22.007Z,43.25
2017-07-02T00:06:26.261Z,40.35
2017-07-02T00:06:30.518Z,39.10
2017-07-02T00:06:34.777Z,40.25
2017-07-02T00:06:39.084Z,40.00
2017-07-02T00:06:43.467Z,40.17
2017-07-02T00:06:47.723Z,39.90
2017-07-02T00:06:51.982Z,38.05
2017-07-02T00:06:57.005Z,38.10
2017-07-02T00:07:02.027Z,38.13
2017-07-02T00:07:06.420Z,38.20
2017-07-02T00:07:11.453Z,37.75
2017-07-02T00:07:16.467Z,37.20
2017-07-02T00:07:21.535Z,36.97
2017-07-02T00:07:25.779Z,37.73
2017-07-02T00:07:30.804Z,37.55
2017-07-02T00:07:35.179Z,36.88
2017-07-02T00:07:39.443Z,38.70
2017-07-02T00:07:43.707Z,38.80
2017-07-02T00:07:48.731Z,38.65
2017-07-02T00:07:53.014Z,38.47
2017-07-02T00:07:57.271Z,37.40
2017-07-02T00:08:01.532Z,37.10
2017-07-02T00:08:06.554Z,36.10
2017-07-02T00:08:10.806Z,35.67
2017-07-02T00:08:15.071Z,34.97
2017-07-02T00:08:19.325Z,34.15
2017-07-02T00:08:23.589Z,33.90
2017-07-02T00:08:27.850Z,33.65
2017-07-02T00:08:32.142Z,33.53
2017-07-02T00:08:37.159Z,32.60
2017-07-02T00:08:41.437Z,30.93
2017-07-02T00:08:45.715Z,30.30
2017-07-02T00:08:50.136Z,29.23
2017-07-02T00:08:54.396Z,28.70
2017-07-02T00:08:58.647Z,28.70
2017-07-02T00:09:02.911Z,28.90
2017-07-02T00:09:07.171Z,28.35
2017-07-02T00:09:12.235Z,28.25
2017-07-02T00:09:16.476Z,27.20
2017-07-02T00:09:20.727Z,26.83
2017-07-02T00:09:24.987Z,26.90
2017-07-02T00:09:30.007Z,27.05
2017-07-02T00:09:35.030Z,27.90
2017-07-02T00:09:40.051Z,27.73
2017-07-02T00:09:44.318Z,30.40
2017-07-02T00:09:48.579Z,30.77
2017-07-02T00:09:52.879Z,30.90
2017-07-02T00:09:58.080Z,31.20
2017-07-02T00:10:02.371Z,31.60
2017-07-02T00:10:07.402Z,31.97
2017-07-02T00:10:11.671Z,32.87
2017-07-02T00:10:15.920Z,33.60
2017-07-02T00:10:20.365Z,33.65
2017-07-02T00:10:24.627Z,34.27
2017-07-02T00:10:28.884Z,34.15
2017-07-02T00:10:33.911Z,33.10
2017-07-02T00:10:38.938Z,34.50
2017-07-02T00:10:43.307Z,33.73
2017-07-02T00:10:47.590Z,34.50
2017-07-02T00:10:51.851Z,35.10
2017-07-02T00:10:56.115Z,35.45
2017-07-02T00:11:00.573Z,35.67
2017-07-02T00:11:04.811Z,37.40
2017-07-02T00:11:09.751Z,38.30
2017-07-02T00:11:14.778Z,40.23
2017-07-02T00:11:19.039Z,42.40
2017-07-02T00:11:23.307Z,43.50
2017-07-02T00:11:27.583Z,44.25
2017-07-02T00:11:32.321Z,45.70
2017-07-02T00:11:36.556Z,46.53
2017-07-02T00:11:40.825Z,47.55
2017-07-02T00:11:45.083Z,47.53
2017-07-02T00:11:49.352Z,46.95
2017-07-02T00:11:53.608Z,48.30
2017-07-02T00:11:57.920Z,48.45
2017-07-02T00:12:02.189Z,47.30
2017-07-02T00:12:07.226Z,46.35
2017-07-02T00:12:11.494Z,46.13
2017-07-02T00:12:15.748Z,46.20
2017-07-02T00:12:20.008Z,46.53
2017-07-02T00:12:24.298Z,48.60
2017-07-02T00:12:29.323Z,47.60
2017-07-02T00:12:34.353Z,45.17
2017-07-02T00:12:39.364Z,43.10
2017-07-02T00:12:44.393Z,42.47
2017-07-02T00:12:49.409Z,43.20
2017-07-02T00:12:54.423Z,42.13
2017-07-02T00:12:59.460Z,41.10
2017-07-02T00:13:03.747Z,41.50
2017-07-02T00:13:08.746Z,42.73
2017-07-02T00:13:13.768Z,42.17
2017-07-02T00:13:18.786Z,40.03
2017-07-02T00:13:24.156Z,38.20
2017-07-02T00:13:28.390Z,37.60
2017-07-02T00:13:32.811Z,38.90
2017-07-02T00:13:37.845Z,39.10
2017-07-02T00:13:42.874Z,38.93
2017-07-02T00:13:47.139Z,37.57
2017-07-02T00:13:51.385Z,37.40
2017-07-02T00:13:55.654Z,36.57
2017-07-02T00:14:00.711Z,36.65
2017-07-02T00:14:05.011Z,36.20
2017-07-02T00:14:09.259Z,35.20
2017-07-02T00:14:13.511Z,34.63
2017-07-02T00:14:17.755Z,34.35
2017-07-02T00:14:22.008Z,33.20
2017-07-02T00:14:26.263Z,32.50
2017-07-02T00:14:30.718Z,31.83
2017-07-02T00:14:34.955Z,31.95
2017-07-02T00:14:39.212Z,31.95
2017-07-02T00:14:43.467Z,31.40
2017-07-02T00:14:47.718Z,31.45
2017-07-02T00:14:52.067Z,30.45
2017-07-02T00:14:56.578Z,30.73
2017-07-02T00:15:01.819Z,30.45
2017-07-02T00:15:06.291Z,29.60
2017-07-02T00:15:10.551Z,30.00
2017-07-02T00:15:14.805Z,30.80
2017-07-02T00:15:19.051Z,31.15
2017-07-02T00:15:23.309Z,32.93
2017-07-02T00:15:27.569Z,33.70
2017-07-02T00:15:31.822Z,33.00
2017-07-02T00:15:36.840Z,33.25
2017-07-02T00:15:41.119Z,32.88
2017-07-02T00:15:45.379Z,32.60
2017-07-02T00:15:49.636Z,33.50
2017-07-02T00:15:53.932Z,34.85
2017-07-02T00:15:58.172Z,34.87
2017-07-02T00:16:02.434Z,34.60
2017-07-02T00:16:07.663Z,34.45
2017-07-02T00:16:11.922Z,35.57
2017-07-02T00:16:16.191Z,36.87
2017-07-02T00:16:20.453Z,35.75
2017-07-02T00:16:24.710Z,34.30
2017-07-02T00:16:29.161Z,34.67
2017-07-02T00:16:33.460Z,34.40
2017-07-02T00:16:37.749Z,33.75
2017-07-02T00:16:42.050Z,33.13
2017-07-02T00:16:46.318Z,33.50
2017-07-02T00:16:50.567Z,33.70
2017-07-02T00:16:54.820Z,32.90
2017-07-02T00:16:59.152Z,32.00
2017-07-02T00:17:03.466Z,31.85
2017-07-02T00:17:07.715Z,31.60
2017-07-02T00:17:11.979Z,30.13
2017-07-02T00:17:17.018Z,28.40
2017-07-02T00:17:21.372Z,27.80
2017-07-02T00:17:25.623Z,27.60
2017-07-02T00:17:29.891Z,27.63
2017-07-02T00:17:34.146Z,26.90
2017-07-02T00:17:38.470Z,26.75
2017-07-02T00:17:42.730Z,26.70
2017-07-02T00:17:46.985Z,26.60
2017-07-02T00:17:51.239Z,25.30
2017-07-02T00:17:55.491Z,25.50
2017-07-02T00:17:59.881Z,27.03
2017-07-02T00:18:04.736Z,28.95
2017-07-02T00:18:08.988Z,29.20
2017-07-02T00:18:13.234Z,29.40
2017-07-02T00:18:17.598Z,30.40
2017-07-02T00:18:21.853Z,31.00
2017-07-02T00:18:26.111Z,31.25
2017-07-02T00:18:30.361Z,30.80
2017-07-02T00:18:34.651Z,31.90
2017-07-02T00:18:38.992Z,33.30
2017-07-02T00:18:43.408Z,34.70
2017-07-02T00:18:47.806Z,35.90
2017-07-02T00:18:52.113Z,36.50
2017-07-02T00:18:56.431Z,36.07
2017-07-02T00:19:01.463Z,34.65
2017-07-02T00:19:05.720Z,33.50
2017-07-02T00:19:09.968Z,33.15
2017-07-02T00:19:14.230Z,32.15
2017-07-02T00:19:20.601Z,31.48
2017-07-02T00:19:25.615Z,31.40
2017-07-02T00:19:30.642Z,33.07
2017-07-02T00:19:35.660Z,32.97
2017-07-02T00:19:40.678Z,33.60
2017-07-02T00:19:45.268Z,32.75
2017-07-02T00:19:49.662Z,31.50
2017-07-02T00:19:53.909Z,32.55
2017-07-02T00:19:58.374Z,32.87
2017-07-02T00:20:02.647Z,32.75
2017-07-02T00:20:06.903Z,32.70
2017-07-02T00:20:11.188Z,32.83
2017-07-02T00:20:16.017Z,33.20
2017-07-02T00:20:21.047Z,36.00
2017-07-02T00:20:25.307Z,36.67
2017-07-02T00:20:29.711Z,36.20
2017-07-02T00:20:33.997Z,36.13
2017-07-02T00:20:38.225Z,34.40
2017-07-02T00:20:43.255Z,34.50
2017-07-02T00:20:48.278Z,33.60
2017-07-02T00:20:52.535Z,32.70
2017-07-02T00:20:56.791Z,31.65
2017-07-02T00:21:01.251Z,31.53
2017-07-02T00:21:05.509Z,31.00
2017-07-02T00:21:09.787Z,31.10
2017-07-02T00:21:14.077Z,30.80
2017-07-02T00:21:18.316Z,28.65
2017-07-02T00:21:22.577Z,26.75
2017-07-02T00:21:26.865Z,26.50
2017-07-02T00:21:31.128Z,27.20
2017-07-02T00:21:35.377Z,26.75
2017-07-02T00:21:39.647Z,26.95
2017-07-02T00:21:44.012Z,27.47
2017-07-02T00:21:48.241Z,27.80
2017-07-02T00:21:52.493Z,27.75
2017-07-02T00:21:56.761Z,27.70
2017-07-02T00:22:01.019Z,28.70
2017-07-02T00:22:05.269Z,28.55
2017-07-02T00:22:10.287Z,27.65
2017-07-02T00:22:15.301Z,28.30
2017-07-02T00:22:19.560Z,28.90
2017-07-02T00:22:23.815Z,29.80
2017-07-02T00:22:28.846Z,28.75
2017-07-02T00:22:33.103Z,28.70
2017-07-02T00:22:37.359Z,29.50
2017-07-02T00:22:41.711Z,29.27
2017-07-02T00:22:45.971Z,30.35
2017-07-02T00:22:50.223Z,31.40
2017-07-02T00:22:54.493Z,31.73
2017-07-02T00:22:58.751Z,30.60
2017-07-02T00:23:03.002Z,31.85
2017-07-02T00:23:07.258Z,33.15
2017-07-02T00:23:11.529Z,33.10
2017-07-02T00:23:16.565Z,32.25
2017-07-02T00:23:21.587Z,33.40
2017-07-02T00:23:25.912Z,33.93
2017-07-02T00:23:30.157Z,34.55
2017-07-02T00:23:34.417Z,34.37
2017-07-02T00:23:38.658Z,33.95
2017-07-02T00:23:42.925Z,34.25
2017-07-02T00:23:47.180Z,32.20
2017-07-02T00:23:52.205Z,32.45
2017-07-02T00:23:56.634Z,32.57
2017-07-02T00:24:00.875Z,34.30
2017-07-02T00:24:05.131Z,32.60
2017-07-02T00:24:09.408Z,31.95
2017-07-02T00:24:14.523Z,33.05
2017-07-02T00:24:18.775Z,33.07
2017-07-02T00:24:23.028Z,32.60
2017-07-02T00:24:28.077Z,32.85
2017-07-02T00:24:32.324Z,32.73
2017-07-02T00:24:36.583Z,32.55
2017-07-02T00:24:40.838Z,32.70
2017-07-02T00:24:46.087Z,33.90
2017-07-02T00:24:50.361Z,34.90
2017-07-02T00:24:54.647Z,35.80
2017-07-02T00:24:58.906Z,35.80
2017-07-02T00:25:03.163Z,35.10
2017-07-02T00:25:08.187Z,35.80
2017-07-02T00:25:12.564Z,35.53
2017-07-02T00:25:16.971Z,35.70
2017-07-02T00:25:21.233Z,34.55
2017-07-02T00:25:25.483Z,33.75
2017-07-02T00:25:30.505Z,33.17
2017-07-02T00:25:35.621Z,34.60
2017-07-02T00:25:40.648Z,34.80
2017-07-02T00:25:45.663Z,33.77
2017-07-02T00:25:50.678Z,32.00
2017-07-02T00:25:55.707Z,30.93
2017-07-02T00:26:00.076Z,30.97
2017-07-02T00:26:04.478Z,31.40
2017-07-02T00:26:08.883Z,31.13
2017-07-02T00:26:13.138Z,31.70
2017-07-02T00:26:17.390Z,32.85
2017-07-02T00:26:21.651Z,32.90
2017-07-02T00:26:25.906Z,32.90
2017-07-02T00:26:30.284Z,32.75
2017-07-02T00:26:34.698Z,31.63
2017-07-02T00:26:38.955Z,32.35
2017-07-02T00:26:43.211Z,33.15
2017-07-02T00:26:47.486Z,34.13
2017-07-02T00:26:51.745Z,33.85
2017-07-02T00:26:55.996Z,33.85
2017-07-02T00:27:00.393Z,32.60
2017-07-02T00:27:04.648Z,32.60
2017-07-02T00:27:08.902Z,32.95
2017-07-02T00:27:13.168Z,34.40
2017-07-02T00:27:17.426Z,33.83
2017-07-02T00:27:21.687Z,33.60
2017-07-02T00:27:26.100Z,34.00
2017-07-02T00:27:30.371Z,33.60
2017-07-02T00:27:34.632Z,32.90
2017-07-02T00:27:39.652Z,32.05
2017-07-02T00:27:44.016Z,31.83
2017-07-02T00:27:48.474Z,32.83
2017-07-02T00:27:52.852Z,33.65
2017-07-02T00:27:57.911Z,33.10
2017-07-02T00:28:02.139Z,35.23
2017-07-02T00:28:06.396Z,35.40
2017-07-02T00:28:10.639Z,34.00
2017-07-02T00:28:14.900Z,32.30
2017-07-02T00:28:19.165Z,32.40
2017-07-02T00:28:23.444Z,33.25
2017-07-02T00:28:27.701Z,33.25
2017-07-02T00:28:31.979Z,33.95
2017-07-02T00:28:37.007Z,35.07
2017-07-02T00:28:42.043Z,35.27
2017-07-02T00:28:46.289Z,34.70
2017-07-02T00:28:50.540Z,33.85
2017-07-02T00:28:54.998Z,34.77
2017-07-02T00:28:59.243Z,34.85
2017-07-02T00:29:03.595Z,32.70
2017-07-02T00:29:07.846Z,33.70
2017-07-02T00:29:12.102Z,34.25
2017-07-02T00:29:16.355Z,34.15
2017-07-02T00:29:20.606Z,33.50
2017-07-02T00:29:24.872Z,32.67
2017-07-02T00:29:29.130Z,33.35
2017-07-02T00:29:34.143Z,33.60
2017-07-02T00:29:38.411Z,32.17
2017-07-02T00:29:42.672Z,32.30
2017-07-02T00:29:46.963Z,33.37
2017-07-02T00:29:51.321Z,34.20
2017-07-02T00:29:55.622Z,33.95
2017-07-02T00:29:59.895Z,33.80
2017-07-02T00:30:04.321Z,34.45
2017-07-02T00:30:08.741Z,34.10
2017-07-02T00:30:12.998Z,33.45
2017-07-02T00:30:17.328Z,33.25
2017-07-02T00:30:21.588Z,34.70
2017-07-02T00:30:25.872Z,34.80
2017-07-02T00:30:30.886Z,34.15
2017-07-02T00:30:35.350Z,34.03
2017-07-02T00:30:39.611Z,34.20
2017-07-02T00:30:43.863Z,33.20
2017-07-02T00:30:48.117Z,31.60
2017-07-02T00:30:52.395Z,32.03
2017-07-02T00:30:56.665Z,32.10
2017-07-02T00:31:00.926Z,32.15
2017-07-02T00:31:05.183Z,32.50
2017-07-02T00:31:10.208Z,32.40
2017-07-02T00:31:14.583Z,33.07
2017-07-02T00:31:18.983Z,33.45
2017-07-02T00:31:23.278Z,32.27
2017-07-02T00:31:27.586Z,32.15
2017-07-02T00:31:31.848Z,32.30
2017-07-02T00:31:36.106Z,31.50
2017-07-02T00:31:40.446Z,32.30
2017-07-02T00:31:44.675Z,33.05
2017-07-02T00:31:49.107Z,32.55
2017-07-02T00:31:53.371Z,31.20
2017-07-02T00:31:57.626Z,30.70
2017-07-02T00:32:01.895Z,30.80
2017-07-02T00:32:06.159Z,30.03
2017-07-02T00:32:10.407Z,30.60
2017-07-02T00:32:14.788Z,30.25
2017-07-02T00:32:19.307Z,30.43
2017-07-02T00:32:23.596Z,32.20
2017-07-02T00:32:27.880Z,33.50
2017-07-02T00:32:32.129Z,32.97
2017-07-02T00:32:37.168Z,32.85
2017-07-02T00:32:41.415Z,31.97
2017-07-02T00:32:45.714Z,32.05
2017-07-02T00:32:49.979Z,32.33
2017-07-02T00:32:54.231Z,33.40
2017-07-02T00:32:58.481Z,34.95
2017-07-02T00:33:02.839Z,34.45
2017-07-02T00:33:07.094Z,35.03
2017-07-02T00:33:11.348Z,37.55
2017-07-02T00:33:16.411Z,37.60
2017-07-02T00:33:21.422Z,36.73
2017-07-02T00:33:25.671Z,34.63
2017-07-02T00:33:29.985Z,35.17
2017-07-02T00:33:35.132Z,35.05
2017-07-02T00:33:40.150Z,34.90
2017-07-02T00:33:44.407Z,36.80
2017-07-02T00:33:48.654Z,37.55
2017-07-02T00:33:53.116Z,38.33
2017-07-02T00:33:57.370Z,38.30
2017-07-02T00:34:01.648Z,39.20
2017-07-02T00:34:05.900Z,39.05
2017-07-02T00:34:10.160Z,36.05
2017-07-02T00:34:14.411Z,37.40
2017-07-02T00:34:18.671Z,38.37
2017-07-02T00:34:22.923Z,39.15
2017-07-02T00:34:27.186Z,38.15
2017-07-02T00:34:31.443Z,37.80
2017-07-02T00:34:36.460Z,37.93
2017-07-02T00:34:41.482Z,37.70
2017-07-02T00:34:45.751Z,36.77
2017-07-02T00:34:50.008Z,37.80
2017-07-02T00:34:54.265Z,37.05
2017-07-02T00:34:58.528Z,37.70
2017-07-02T00:35:02.803Z,37.75
2017-07-02T00:35:07.148Z,37.35
2017-07-02T00:35:11.464Z,38.53
2017-07-02T00:35:15.720Z,37.10
2017-07-02T00:35:19.969Z,36.40
2017-07-02T00:35:24.218Z,36.95
2017-07-02T00:35:28.478Z,39.00
2017-07-02T00:35:32.968Z,39.15
2017-07-02T00:35:37.235Z,39.15
2017-07-02T00:35:41.504Z,39.30
2017-07-02T00:35:45.764Z,38.75
2017-07-02T00:35:50.013Z,37.30
2017-07-02T00:35:54.268Z,37.67
2017-07-02T00:35:58.524Z,36.50
2017-07-02T00:36:02.959Z,36.70
2017-07-02T00:36:07.375Z,37.50
2017-07-02T00:36:11.666Z,35.95
2017-07-02T00:36:15.923Z,35.80
2017-07-02T00:36:20.186Z,36.43
2017-07-02T00:36:24.641Z,35.05
2017-07-02T00:36:28.998Z,33.25
2017-07-02T00:36:34.018Z,32.77
2017-07-02T00:36:38.301Z,32.50
2017-07-02T00:36:42.558Z,32.90
2017-07-02T00:36:46.815Z,32.90
2017-07-02T00:36:51.206Z,32.17
2017-07-02T00:36:55.569Z,31.30
2017-07-02T00:36:59.799Z,30.10
2017-07-02T00:37:04.059Z,30.03
2017-07-02T00:37:08.318Z,28.75
2017-07-02T00:37:12.576Z,28.55
2017-07-02T00:37:17.534Z,27.85
2017-07-02T00:37:22.559Z,29.03
2017-07-02T00:37:27.580Z,29.37
2017-07-02T00:37:31.870Z,29.40
2017-07-02T00:37:36.159Z,29.50
2017-07-02T00:37:40.413Z,29.05
2017-07-02T00:37:44.671Z,28.00
2017-07-02T00:37:48.926Z,27.60
2017-07-02T00:37:53.191Z,27.25
2017-07-02T00:37:58.215Z,27.00
2017-07-02T00:38:02.470Z,27.07
2017-07-02T00:38:06.733Z,27.00
2017-07-02T00:38:10.986Z,27.00
2017-07-02T00:38:15.235Z,27.60
2017-07-02T00:38:19.951Z,27.05
2017-07-02T00:38:24.355Z,26.73
2017-07-02T00:38:28.771Z,27.53
2017-07-02T00:38:33.163Z,27.85
2017-07-02T00:38:37.826Z,29.37
2017-07-02T00:38:42.067Z,29.90
2017-07-02T00:38:46.331Z,30.75
2017-07-02T00:38:50.587Z,32.90
2017-07-02T00:38:55.012Z,33.40
2017-07-02T00:38:59.271Z,33.70
2017-07-02T00:39:03.539Z,33.30
2017-07-02T00:39:07.779Z,33.05
2017-07-02T00:39:12.040Z,33.50
2017-07-02T00:39:16.312Z,33.15
2017-07-02T00:39:20.577Z,34.20
2017-07-02T00:39:24.834Z,34.50
2017-07-02T00:39:29.880Z,33.55
2017-07-02T00:39:34.127Z,32.70
2017-07-02T00:39:38.398Z,31.57
2017-07-02T00:39:42.646Z,32.50
2017-07-02T00:39:46.902Z,32.20
2017-07-02T00:39:51.150Z,30.95
2017-07-02T00:39:55.524Z,30.53
2017-07-02T00:39:59.761Z,30.40
2017-07-02T00:40:04.781Z,31.70
2017-07-02T00:40:09.796Z,31.80
2017-07-02T00:40:14.076Z,31.50
2017-07-02T00:40:18.330Z,30.67
2017-07-02T00:40:22.582Z,29.80
2017-07-02T00:40:26.840Z,29.80
2017-07-02T00:40:31.083Z,29.80
2017-07-02T00:40:35.371Z,30.20
2017-07-02T00:40:39.624Z,29.75
2017-07-02T00:40:43.881Z,28.80
2017-07-02T00:40:48.152Z,28.63
2017-07-02T00:40:52.403Z,28.65
2017-07-02T00:40:56.807Z,30.40
2017-07-02T00:41:01.075Z,30.00
2017-07-02T00:41:05.323Z,29.85
2017-07-02T00:41:09.597Z,30.25
2017-07-02T00:41:14.618Z,30.67
2017-07-02T00:41:19.019Z,31.20
2017-07-02T00:41:23.306Z,30.95
2017-07-02T00:41:27.577Z,31.65
2017-07-02T00:41:31.843Z,32.07
2017-07-02T00:41:36.098Z,32.05
2017-07-02T00:41:40.406Z,32.25
2017-07-02T00:41:44.666Z,32.15
2017-07-02T00:41:49.110Z,32.80
2017-07-02T00:41:53.387Z,32.40
2017-07-02T00:41:57.647Z,31.15
2017-07-02T00:42:01.902Z,31.53
2017-07-02T00:42:06.182Z,31.50
2017-07-02T00:42:10.428Z,31.10
2017-07-02T00:42:15.450Z,30.83
2017-07-02T00:42:19.710Z,31.57
2017-07-02T00:42:23.968Z,32.60
2017-07-02T00:42:28.294Z,32.25
2017-07-02T00:42:32.522Z,32.87
2017-07-02T00:42:36.791Z,32.45
2017-07-02T00:42:41.051Z,32.90
2017-07-02T00:42:45.304Z,32.90
2017-07-02T00:42:49.567Z,32.13
2017-07-02T00:42:54.599Z,32.30
2017-07-02T00:42:58.859Z,32.67
2017-07-02T00:43:03.107Z,32.45
2017-07-02T00:43:07.358Z,32.55
2017-07-02T00:43:11.640Z,33.23
2017-07-02T00:43:15.883Z,35.20
2017-07-02T00:43:20.251Z,34.30
2017-07-02T00:43:24.519Z,33.80
2017-07-02T00:43:28.779Z,33.80
2017-07-02T00:43:33.799Z,32.75
2017-07-02T00:43:38.822Z,33.77
2017-07-02T00:43:43.092Z,35.50
2017-07-02T00:43:47.353Z,35.40
2017-07-02T00:43:51.609Z,34.55
2017-07-02T00:43:55.955Z,34.10
2017-07-02T00:44:00.193Z,34.10
2017-07-02T00:44:04.461Z,33.70
2017-07-02T00:44:08.704Z,34.20
2017-07-02T00:44:13.097Z,33.75
2017-07-02T00:44:17.370Z,31.77
2017-07-02T00:44:21.640Z,32.90
2017-07-02T00:44:26.654Z,32.60
2017-07-02T00:44:30.910Z,33.10
2017-07-02T00:44:35.171Z,32.67
2017-07-02T00:44:39.424Z,29.90
2017-07-02T00:44:43.698Z,29.90
2017-07-02T00:44:47.946Z,30.95
2017-07-02T00:44:52.316Z,31.87
2017-07-02T00:44:56.623Z,32.05
2017-07-02T00:45:00.930Z,32.93
2017-07-02T00:45:05.195Z,32.75
2017-07-02T00:45:09.451Z,32.05
2017-07-02T00:45:13.755Z,31.25
2017-07-02T00:45:18.035Z,32.10
2017-07-02T00:45:23.176Z,31.35
2017-07-02T00:45:28.195Z,31.47
2017-07-02T00:45:33.204Z,31.70
2017-07-02T00:45:38.230Z,32.17
2017-07-02T00:45:43.250Z,32.47
2017-07-02T00:45:47.512Z,32.33
2017-07-02T00:45:51.931Z,32.20
2017-07-02T00:45:56.187Z,33.70
2017-07-02T00:46:00.655Z,32.75
2017-07-02T00:46:04.951Z,32.70
2017-07-02T00:46:09.970Z,33.80
2017-07-02T00:46:14.988Z,34.47
2017-07-02T00:46:20.015Z,32.93
2017-07-02T00:46:25.042Z,32.93
2017-07-02T00:46:29.317Z,33.13
2017-07-02T00:46:33.566Z,33.43
2017-07-02T00:46:37.867Z,33.65
2017-07-02T00:46:42.127Z,34.45
2017-07-02T00:46:47.268Z,33.70
2017-07-02T00:46:51.521Z,34.33
2017-07-02T00:46:55.786Z,33.85
2017-07-02T00:47:00.057Z,33.35
2017-07-02T00:47:04.355Z,32.90
2017-07-02T00:47:09.374Z,32.03
2017-07-02T00:47:13.634Z,31.17
2017-07-02T00:47:17.896Z,32.35
2017-07-02T00:47:22.147Z,32.75
2017-07-02T00:47:26.423Z,32.27
2017-07-02T00:47:30.717Z,32.45
2017-07-02T00:47:34.951Z,31.85
2017-07-02T00:47:39.207Z,32.20
2017-07-02T00:47:43.509Z,32.40
2017-07-02T00:47:47.796Z,33.75
2017-07-02T00:47:52.037Z,33.50
2017-07-02T00:47:56.302Z,32.63
2017-07-02T00:48:00.555Z,33.45
2017-07-02T00:48:04.825Z,33.70
2017-07-02T00:48:09.175Z,34.20
2017-07-02T00:48:13.455Z,34.85
2017-07-02T00:48:17.758Z,34.30
2017-07-02T00:48:22.015Z,34.75
2017-07-02T00:48:26.300Z,35.13
2017-07-02T00:48:30.556Z,35.15
2017-07-02T00:48:34.802Z,34.75
2017-07-02T00:48:39.054Z,34.63
2017-07-02T00:48:43.306Z,33.40
2017-07-02T00:48:47.559Z,33.55
2017-07-02T00:48:51.813Z,32.25
2017-07-02T00:48:56.075Z,32.23
2017-07-02T00:49:00.363Z,32.45
2017-07-02T00:49:04.802Z,31.65
2017-07-02T00:49:09.071Z,31.10
2017-07-02T00:49:13.328Z,30.65
2017-07-02T00:49:17.590Z,30.65
2017-07-02T00:49:22.610Z,29.40
2017-07-02T00:49:27.001Z,28.77
2017-07-02T00:49:31.271Z,28.95
2017-07-02T00:49:35.531Z,29.05
2017-07-02T00:49:39.778Z,29.03
2017-07-02T00:49:44.028Z,28.70
2017-07-02T00:49:48.399Z,27.30
2017-07-02T00:49:53.535Z,27.47
2017-07-02T00:49:58.596Z,28.87
2017-07-02T00:50:02.863Z,30.43
2017-07-02T00:50:07.883Z,30.35
2017-07-02T00:50:12.177Z,30.03
2017-07-02T00:50:16.394Z,29.80
2017-07-02T00:50:20.655Z,29.87
2017-07-02T00:50:24.923Z,30.70
2017-07-02T00:50:29.271Z,31.40
2017-07-02T00:50:33.559Z,32.00
2017-07-02T00:50:37.915Z,31.70
2017-07-02T00:50:42.250Z,31.20
2017-07-02T00:50:46.502Z,31.87
2017-07-02T00:50:50.756Z,32.00
2017-07-02T00:50:55.011Z,30.95
2017-07-02T00:50:59.362Z,29.40
2017-07-02T00:51:03.624Z,28.47
2017-07-02T00:51:07.967Z,28.60
2017-07-02T00:51:12.199Z,28.30
2017-07-02T00:51:16.472Z,29.13
2017-07-02T00:51:20.714Z,29.10
2017-07-02T00:51:25.063Z,28.25
2017-07-02T00:51:29.369Z,27.07
2017-07-02T00:51:33.653Z,26.50
2017-07-02T00:51:37.920Z,27.50
2017-07-02T00:51:42.175Z,27.65
2017-07-02T00:51:46.434Z,26.83
2017-07-02T00:51:50.688Z,26.60
2017-07-02T00:51:54.991Z,27.15
2017-07-02T00:52:00.020Z,27.87
2017-07-02T00:52:05.035Z,29.07
2017-07-02T00:52:10.103Z,30.30
2017-07-02T00:52:14.389Z,30.30
2017-07-02T00:52:18.647Z,30.20
2017-07-02T00:52:22.921Z,30.45
2017-07-02T00:52:27.184Z,31.33
2017-07-02T00:52:31.618Z,32.85
2017-07-02T00:52:35.870Z,32.45
2017-07-02T00:52:40.191Z,31.97
2017-07-02T00:52:44.419Z,32.50
2017-07-02T00:52:48.671Z,33.60
2017-07-02T00:52:52.940Z,34.20
2017-07-02T00:52:57.208Z,35.05
2017-07-02T00:53:01.459Z,34.95
2017-07-02T00:53:06.479Z,34.55
2017-07-02T00:53:10.859Z,33.77
2017-07-02T00:53:15.260Z,33.43
2017-07-02T00:53:19.512Z,34.30
2017-07-02T00:53:23.762Z,34.05
2017-07-02T00:53:28.023Z,34.03
2017-07-02T00:53:32.284Z,32.55
2017-07-02T00:53:37.298Z,32.75
2017-07-02T00:53:41.595Z,32.13
2017-07-02T00:53:46.618Z,31.40
2017-07-02T00:53:51.670Z,31.47
2017-07-02T00:53:55.971Z,29.73
2017-07-02T00:54:00.315Z,28.80
2017-07-02T00:54:04.583Z,28.15
2017-07-02T00:54:08.846Z,28.60
2017-07-02T00:54:13.231Z,29.00
2017-07-02T00:54:17.533Z,28.80
2017-07-02T00:54:21.791Z,28.33
2017-07-02T00:54:26.040Z,29.10
2017-07-02T00:54:31.063Z,29.20
2017-07-02T00:54:36.075Z,31.47
2017-07-02T00:54:40.334Z,33.20
2017-07-02T00:54:44.603Z,33.83
2017-07-02T00:54:48.956Z,33.05
2017-07-02T00:54:53.271Z,33.65
2017-07-02T00:54:57.531Z,34.47
2017-07-02T00:55:01.836Z,34.40
2017-07-02T00:55:06.070Z,34.25
2017-07-02T00:55:10.326Z,33.40
2017-07-02T00:55:14.603Z,32.80
2017-07-02T00:55:19.070Z,32.35
2017-07-02T00:55:23.339Z,32.80
2017-07-02T00:55:27.606Z,32.33
2017-07-02T00:55:31.860Z,31.30
2017-07-02T00:55:36.119Z,29.05
2017-07-02T00:55:40.483Z,27.90
2017-07-02T00:55:44.745Z,27.55
2017-07-02T00:55:48.990Z,28.00
2017-07-02T00:55:54.008Z,28.00
2017-07-02T00:55:59.087Z,27.93
2017-07-02T00:56:03.363Z,29.13
2017-07-02T00:56:07.704Z,29.40
2017-07-02T00:56:11.984Z,29.80
2017-07-02T00:56:16.331Z,31.37
2017-07-02T00:56:20.990Z,31.55
2017-07-02T00:56:25.290Z,31.63
2017-07-02T00:56:29.663Z,31.50
2017-07-02T00:56:34.812Z,31.85
2017-07-02T00:56:39.047Z,32.90
2017-07-02T00:56:43.427Z,33.90
2017-07-02T00:56:47.677Z,33.35
2017-07-02T00:56:52.697Z,33.15